Time;durP1;ratioP1;P1;durP2;ratioP2;P2;SDS_P1;SDS_P2;PMS_P1;PMS_P2;Temp;Humidity;BMP_temperature;BMP_pressure;BME280_temperature;BME280_humidity;BME280_pressure;Samples;Min_cycle;Max_cycle;Signal;HPM_P1;HPM_P2
2021/11/17 02:26:12;;;;;;;9.25;6.78;;;;;;;;;;5030359;28;20274;-67
2021/11/17 02:28:50;;;;;;;8.65;6.35;;;;;;;;;;5029790;28;20194;-67
2021/11/17 02:31:38;;;;;;;8.80;6.32;;;;;;;;;;5062111;28;20189;-67
2021/11/17 02:34:13;;;;;;;10.32;6.35;;;;;;;;;;5047669;28;20588;-67
2021/11/17 02:36:53;;;;;;;9.00;6.30;;;;;;;;;;5054094;28;20222;-68
2021/11/17 02:39:30;;;;;;;8.93;6.50;;;;;;;;;;5071769;28;20247;-67
2021/11/17 02:42:08;;;;;;;12.18;7.20;;;;;;;;;;5072318;28;20213;-67
2021/11/17 02:44:54;;;;;;;10.02;6.15;;;;;;;;;;5071692;28;20194;-67
2021/11/17 02:47:29;;;;;;;12.50;7.82;;;;;;;;;;5072354;28;20617;-67
2021/11/17 02:50:10;;;;;;;10.05;6.50;;;;;;;;;;5071693;28;20192;-67
2021/11/17 02:52:47;;;;;;;9.30;6.57;;;;;;;;;;5071985;28;20229;-67
2021/11/17 02:55:27;;;;;;;10.40;6.18;;;;;;;;;;5071695;28;20190;-67
2021/11/17 02:58:01;;;;;;;7.55;6.30;;;;;;;;;;5072133;28;20225;-67
2021/11/17 03:00:39;;;;;;;9.10;6.35;;;;;;;;;;5071521;28;20182;-67
2021/11/17 03:03:15;;;;;;;8.13;5.40;;;;;;;;;;5071890;28;20186;-67
2021/11/17 03:05:57;;;;;;;6.80;5.25;;;;;;;;;;5071442;28;20186;-67
2021/11/17 03:08:31;;;;;;;9.73;4.90;;;;;;;;;;5071861;28;20228;-67
2021/11/17 03:11:06;;;;;;;7.15;5.03;;;;;;;;;;5071638;28;20212;-68
2021/11/17 03:13:49;;;;;;;8.98;6.25;;;;;;;;;;5071846;28;20193;-66
2021/11/17 03:16:23;;;;;;;10.68;5.75;;;;;;;;;;5072410;28;20213;-67
2021/11/17 03:19:07;;;;;;;7.57;5.35;;;;;;;;;;5075839;28;20551;-67
2021/11/17 03:21:52;;;;;;;9.27;6.10;;;;;;;;;;5075122;28;20676;-67
2021/11/17 03:24:31;;;;;;;9.15;5.97;;;;;;;;;;5075703;28;20194;-67
2021/11/17 03:27:06;;;;;;;9.75;5.95;;;;;;;;;;5074946;28;20190;-67
2021/11/17 03:29:39;;;;;;;8.50;5.43;;;;;;;;;;5075583;28;20553;-67
2021/11/17 03:32:17;;;;;;;8.38;5.45;;;;;;;;;;5075244;28;20613;-67
2021/11/17 03:34:51;;;;;;;11.52;5.40;;;;;;;;;;5075227;28;20186;-67
2021/11/17 03:37:32;;;;;;;8.80;6.22;;;;;;;;;;5075452;28;20218;-67
2021/11/17 03:40:20;;;;;;;7.85;5.75;;;;;;;;;;5074775;28;20186;-67
2021/11/17 03:42:56;;;;;;;9.15;6.25;;;;;;;;;;5075473;28;20658;-67
2021/11/17 03:45:45;;;;;;;10.57;6.47;;;;;;;;;;5074798;28;20186;-67
2021/11/17 03:48:18;;;;;;;10.90;7.75;;;;;;;;;;5075249;28;20217;-67
2021/11/17 03:50:55;;;;;;;11.98;6.50;;;;;;;;;;5074421;28;20269;-67
2021/11/17 03:56:25;;;;;;;10.70;7.68;;;;;;;;;;5072249;28;20280;-67
2021/11/17 03:59:04;;;;;;;10.07;6.40;;;;;;;;;;5074462;28;20186;-67
2021/11/17 04:01:41;;;;;;;8.52;5.60;;;;;;;;;;5074852;28;20186;-67
2021/11/17 04:04:17;;;;;;;9.15;5.80;;;;;;;;;;5075175;28;20199;-67
2021/11/17 04:06:55;;;;;;;8.05;5.65;;;;;;;;;;5074609;28;20190;-67
2021/11/17 04:09:34;;;;;;;8.45;6.50;;;;;;;;;;5075059;28;20548;-67
2021/11/17 04:12:11;;;;;;;8.15;5.60;;;;;;;;;;5074252;28;20217;-67
2021/11/17 04:14:45;;;;;;;8.68;6.60;;;;;;;;;;5074801;28;20197;-67
2021/11/17 04:17:20;;;;;;;7.55;5.55;;;;;;;;;;5054829;28;20309;-67
2021/11/17 04:19:53;;;;;;;9.30;5.45;;;;;;;;;;5065859;28;20255;-67
2021/11/17 04:22:27;;;;;;;8.02;5.38;;;;;;;;;;5074955;28;20205;-67
2021/11/17 04:25:13;;;;;;;9.82;5.65;;;;;;;;;;5074106;28;20197;-68
2021/11/17 04:27:48;;;;;;;9.05;6.28;;;;;;;;;;5074245;28;20183;-67
2021/11/17 04:30:32;;;;;;;10.27;6.18;;;;;;;;;;5074702;28;20201;-67
2021/11/17 04:33:06;;;;;;;7.43;5.20;;;;;;;;;;5074264;28;20606;-67
2021/11/17 04:35:44;;;;;;;8.63;6.55;;;;;;;;;;5074603;28;20197;-67
2021/11/17 04:38:24;;;;;;;7.97;5.32;;;;;;;;;;5074142;28;20214;-67
2021/11/17 04:41:04;;;;;;;10.15;6.85;;;;;;;;;;5074220;28;20186;-66
2021/11/17 04:43:50;;;;;;;6.97;4.90;;;;;;;;;;5074551;28;20225;-68
2021/11/17 04:46:24;;;;;;;7.20;4.75;;;;;;;;;;5074078;28;20240;-66
2021/11/17 04:49:01;;;;;;;7.10;4.97;;;;;;;;;;5074549;28;20197;-67
2021/11/17 04:51:38;;;;;;;11.18;5.45;;;;;;;;;;5073628;28;20186;-67
2021/11/17 04:54:18;;;;;;;8.30;5.65;;;;;;;;;;5073996;28;20269;-67
2021/11/17 04:56:53;;;;;;;7.60;4.93;;;;;;;;;;5074170;28;20226;-67
2021/11/17 04:59:37;;;;;;;8.55;5.85;;;;;;;;;;5073762;28;20225;-66
2021/11/17 05:02:28;;;;;;;7.68;5.10;;;;;;;;;;5073082;28;20256;-67
2021/11/17 05:05:02;;;;;;;10.18;6.07;;;;;;;;;;5058618;28;20179;-67
2021/11/17 05:07:36;;;;;;;8.63;5.93;;;;;;;;;;5074142;28;20588;-66
2021/11/17 05:10:09;;;;;;;10.55;6.40;;;;;;;;;;5073426;28;20236;-67
2021/11/17 05:12:44;;;;;;;8.15;5.57;;;;;;;;;;5073531;28;20215;-66
2021/11/17 05:15:18;;;;;;;10.70;6.15;;;;;;;;;;5073322;28;20601;-66
2021/11/17 05:17:52;;;;;;;9.35;5.18;;;;;;;;;;5073731;28;20232;-66
2021/11/17 05:20:27;;;;;;;7.55;4.93;;;;;;;;;;5073457;28;20194;-66
2021/11/17 05:23:02;;;;;;;8.48;6.03;;;;;;;;;;5073353;28;20513;-67
2021/11/17 05:25:42;;;;;;;8.60;5.75;;;;;;;;;;5073725;28;20247;-66
2021/11/17 05:28:17;;;;;;;9.35;6.35;;;;;;;;;;5072997;28;20231;-67
2021/11/17 05:30:54;;;;;;;7.93;5.22;;;;;;;;;;5073560;28;20262;-66
2021/11/17 05:33:37;;;;;;;10.75;6.90;;;;;;;;;;5073396;28;20201;-66
2021/11/17 05:36:10;;;;;;;9.35;6.13;;;;;;;;;;5073013;28;20217;-66
2021/11/17 05:38:43;;;;;;;9.10;6.50;;;;;;;;;;5072624;28;20619;-66
2021/11/17 05:41:16;;;;;;;9.35;5.80;;;;;;;;;;5072944;28;20726;-67
2021/11/17 05:43:51;;;;;;;8.27;6.18;;;;;;;;;;5073293;28;20611;-66
2021/11/17 05:46:31;;;;;;;8.75;5.40;;;;;;;;;;5072787;28;20312;-67
2021/11/17 05:49:04;;;;;;;9.52;5.80;;;;;;;;;;5073401;28;20672;-67
2021/11/17 05:51:46;;;;;;;9.15;6.25;;;;;;;;;;5072551;28;20304;-66
2021/11/17 05:54:20;;;;;;;9.93;7.45;;;;;;;;;;5072983;28;20289;-66
2021/11/17 05:56:55;;;;;;;10.90;6.40;;;;;;;;;;5072283;28;20221;-67
2021/11/17 05:59:30;;;;;;;11.10;6.30;;;;;;;;;;5073122;28;20174;-66
2021/11/17 06:02:03;;;;;;;7.65;5.03;;;;;;;;;;5072809;28;20202;-66
2021/11/17 06:04:31;;;;;;;11.05;6.00;;;;;;;;;;5072460;28;20217;-66
2021/11/17 06:06:59;;;;;;;9.70;7.00;;;;;;;;;;5072485;28;20273;-67
2021/11/17 06:09:26;;;;;;;9.10;6.18;;;;;;;;;;5072291;28;20186;-67
2021/11/17 06:11:57;;;;;;;12.88;7.80;;;;;;;;;;5072524;28;20258;-66
2021/11/17 06:14:27;;;;;;;8.32;5.45;;;;;;;;;;5072367;28;20227;-66
2021/11/17 06:16:56;;;;;;;11.50;6.70;;;;;;;;;;5072912;28;20224;-66
2021/11/17 06:19:25;;;;;;;11.70;7.68;;;;;;;;;;5072351;28;20221;-66
2021/11/17 06:21:53;;;;;;;11.35;7.40;;;;;;;;;;5072394;28;20194;-66
2021/11/17 06:24:22;;;;;;;13.15;6.93;;;;;;;;;;5072076;28;20372;-67
2021/11/17 06:26:50;;;;;;;11.98;7.28;;;;;;;;;;5072526;28;20194;-67
2021/11/17 06:29:21;;;;;;;11.55;6.90;;;;;;;;;;5072036;28;20221;-67
2021/11/17 06:31:49;;;;;;;10.73;6.43;;;;;;;;;;5072503;28;20212;-67
2021/11/17 06:34:28;;;;;;;12.00;6.07;;;;;;;;;;5071891;28;20186;-67
2021/11/17 06:36:55;;;;;;;10.15;6.80;;;;;;;;;;5072081;28;20305;-68
2021/11/17 06:39:23;;;;;;;10.20;6.60;;;;;;;;;;5071674;28;20194;-67
2021/11/17 06:41:50;;;;;;;9.90;6.43;;;;;;;;;;5071844;28;20236;-67
2021/11/17 06:44:19;;;;;;;11.43;7.00;;;;;;;;;;5071634;28;20201;-68
2021/11/17 06:46:46;;;;;;;11.23;6.80;;;;;;;;;;5051915;28;20248;-68
2021/11/17 06:49:13;;;;;;;9.93;6.55;;;;;;;;;;5068143;28;20272;-67
2021/11/17 06:51:41;;;;;;;9.63;5.93;;;;;;;;;;5072131;28;20202;-67
2021/11/17 06:54:08;;;;;;;13.40;8.95;;;;;;;;;;5071930;28;20190;-67
2021/11/17 06:56:35;;;;;;;16.52;7.90;;;;;;;;;;5072364;28;20194;-67
2021/11/17 06:59:03;;;;;;;11.10;7.43;;;;;;;;;;5071152;28;20225;-67
2021/11/17 07:01:32;;;;;;;14.23;7.28;;;;;;;;;;5071573;28;20190;-69
2021/11/17 07:04:00;;;;;;;14.13;8.27;;;;;;;;;;5072361;28;20201;-68
2021/11/17 07:06:28;;;;;;;13.95;8.40;;;;;;;;;;5070134;28;20720;-68
2021/11/17 07:08:56;;;;;;;13.75;7.57;;;;;;;;;;5069895;28;20259;-67
2021/11/17 07:11:25;;;;;;;13.32;7.75;;;;;;;;;;5071013;28;20261;-67
2021/11/17 07:13:53;;;;;;;11.95;7.20;;;;;;;;;;5071505;28;20218;-67
2021/11/17 07:16:20;;;;;;;13.60;8.55;;;;;;;;;;5072098;28;20186;-67
2021/11/17 07:18:49;;;;;;;18.80;7.65;;;;;;;;;;5071802;28;20241;-67
2021/11/17 07:21:16;;;;;;;13.88;8.13;;;;;;;;;;5072327;28;20198;-67
2021/11/17 07:23:44;;;;;;;11.85;7.93;;;;;;;;;;5072050;28;20194;-67
2021/11/17 07:26:11;;;;;;;17.60;10.48;;;;;;;;;;5070034;28;20217;-67
2021/11/17 07:28:41;;;;;;;16.20;9.35;;;;;;;;;;5071000;28;20676;-67
2021/11/17 07:31:09;;;;;;;14.35;8.60;;;;;;;;;;5071573;28;20285;-67
2021/11/17 07:33:36;;;;;;;11.65;6.63;;;;;;;;;;5071037;28;20277;-67
2021/11/17 07:36:05;;;;;;;10.07;6.63;;;;;;;;;;5071981;28;20202;-67
2021/11/17 07:38:32;;;;;;;12.00;7.82;;;;;;;;;;5071849;28;20217;-68
2021/11/17 07:41:00;;;;;;;13.77;7.57;;;;;;;;;;5071471;28;20225;-67
2021/11/17 07:43:28;;;;;;;13.00;7.50;;;;;;;;;;5071770;28;20190;-67
2021/11/17 07:45:56;;;;;;;14.65;8.65;;;;;;;;;;5071984;28;20610;-67
2021/11/17 07:48:25;;;;;;;15.82;7.72;;;;;;;;;;5071789;28;20273;-67
2021/11/17 07:50:53;;;;;;;14.45;6.85;;;;;;;;;;5071786;28;20241;-67
2021/11/17 07:53:23;;;;;;;13.32;8.05;;;;;;;;;;5072342;28;20233;-67
2021/11/17 07:55:52;;;;;;;12.30;7.03;;;;;;;;;;5071848;28;20666;-67
2021/11/17 07:58:20;;;;;;;16.83;8.15;;;;;;;;;;5072055;28;20627;-67
2021/11/17 08:00:50;;;;;;;11.35;7.70;;;;;;;;;;5070710;28;20269;-67
2021/11/17 08:03:18;;;;;;;9.80;7.20;;;;;;;;;;5073513;28;20236;-68
2021/11/17 08:05:46;;;;;;;14.07;7.82;;;;;;;;;;5075117;28;20198;-67
2021/11/17 08:08:13;;;;;;;14.18;8.27;;;;;;;;;;5074892;28;20575;-67
2021/11/17 08:10:43;;;;;;;11.70;7.88;;;;;;;;;;5075144;28;20194;-67
2021/11/17 08:13:11;;;;;;;9.88;7.53;;;;;;;;;;5074864;28;20309;-67
2021/11/17 08:15:38;;;;;;;12.52;7.53;;;;;;;;;;5074334;28;20190;-67
2021/11/17 08:18:06;;;;;;;11.73;8.05;;;;;;;;;;5074784;28;20264;-67
2021/11/17 08:20:34;;;;;;;12.10;8.73;;;;;;;;;;5074402;28;20183;-67
2021/11/17 08:23:01;;;;;;;13.13;8.15;;;;;;;;;;5074772;28;20229;-67
2021/11/17 08:25:30;;;;;;;12.00;7.15;;;;;;;;;;5074311;28;20190;-65
2021/11/17 08:28:00;;;;;;;12.48;7.90;;;;;;;;;;5074548;28;20649;-67
2021/11/17 08:30:29;;;;;;;15.10;7.65;;;;;;;;;;5074094;28;20194;-67
2021/11/17 08:32:57;;;;;;;11.38;7.38;;;;;;;;;;5073560;28;20222;-65
2021/11/17 08:35:26;;;;;;;12.32;7.95;;;;;;;;;;5074208;28;20214;-66
2021/11/17 08:37:56;;;;;;;13.65;7.95;;;;;;;;;;5074709;28;20297;-67
2021/11/17 08:40:27;;;;;;;15.05;8.15;;;;;;;;;;5074210;28;21498;-67
2021/11/17 08:42:54;;;;;;;11.75;7.60;;;;;;;;;;5074540;28;20281;-68
2021/11/17 08:45:24;;;;;;;13.90;8.18;;;;;;;;;;5074060;28;20487;-68
2021/11/17 08:47:52;;;;;;;12.75;8.05;;;;;;;;;;5074064;28;20269;-67
2021/11/17 08:50:22;;;;;;;11.57;8.45;;;;;;;;;;5074166;28;20229;-66
2021/11/17 08:52:51;;;;;;;12.63;8.10;;;;;;;;;;5073596;28;20273;-67
2021/11/17 08:55:19;;;;;;;11.95;8.00;;;;;;;;;;5073821;28;20190;-67
2021/11/17 08:57:48;;;;;;;13.63;8.65;;;;;;;;;;5073950;28;20214;-67
2021/11/17 09:00:18;;;;;;;22.80;17.48;;;;;;;;;;5074042;28;20190;-67
2021/11/17 09:02:47;;;;;;;26.23;17.45;;;;;;;;;;5072530;28;20221;-67
2021/11/17 09:05:15;;;;;;;33.67;20.52;;;;;;;;;;5074229;28;20713;-67
2021/11/17 09:07:43;;;;;;;13.45;9.38;;;;;;;;;;5073724;28;20239;-67
2021/11/17 09:10:11;;;;;;;16.17;9.98;;;;;;;;;;5074129;28;20277;-68
2021/11/17 09:12:38;;;;;;;12.93;8.55;;;;;;;;;;5073663;28;20218;-67
2021/11/17 09:15:06;;;;;;;12.25;8.90;;;;;;;;;;5072749;28;20190;-67
2021/11/17 09:17:35;;;;;;;22.27;11.05;;;;;;;;;;5073892;28;20190;-67
2021/11/17 09:20:04;;;;;;;11.82;8.88;;;;;;;;;;5069975;28;20214;-67
2021/11/17 09:22:31;;;;;;;24.17;17.50;;;;;;;;;;5072370;28;20225;-68
2021/11/17 09:24:58;;;;;;;26.88;16.92;;;;;;;;;;5073974;28;20238;-68
2021/11/17 09:27:26;;;;;;;15.52;11.80;;;;;;;;;;5072131;28;20556;-68
2021/11/17 09:29:54;;;;;;;17.52;11.98;;;;;;;;;;5073346;28;20182;-67
2021/11/17 09:32:21;;;;;;;13.70;9.65;;;;;;;;;;5073444;28;20239;-67
2021/11/17 09:34:48;;;;;;;21.13;12.43;;;;;;;;;;5073145;28;20222;-67
2021/11/17 09:37:17;;;;;;;18.95;10.70;;;;;;;;;;5073749;28;20275;-67
2021/11/17 09:39:49;;;;;;;21.80;13.20;;;;;;;;;;5071223;28;20313;-67
2021/11/17 09:42:17;;;;;;;17.40;11.88;;;;;;;;;;5073829;28;20641;-67
2021/11/17 09:44:45;;;;;;;16.20;10.40;;;;;;;;;;5072849;28;20198;-67
2021/11/17 09:47:15;;;;;;;17.00;12.50;;;;;;;;;;5072323;28;20240;-67
2021/11/17 09:49:50;;;;;;;16.05;9.90;;;;;;;;;;5068679;28;20297;-69
2021/11/17 09:52:21;;;;;;;18.48;8.82;;;;;;;;;;5072401;28;20190;-67
2021/11/17 09:54:50;;;;;;;18.45;9.77;;;;;;;;;;5072557;28;20194;-67
2021/11/17 09:57:18;;;;;;;17.70;10.70;;;;;;;;;;5072486;28;20218;-67
2021/11/17 09:59:48;;;;;;;17.05;10.80;;;;;;;;;;5072473;28;20588;-67
2021/11/17 10:02:18;;;;;;;15.52;9.30;;;;;;;;;;5072454;28;20192;-67
2021/11/17 10:04:54;;;;;;;16.48;10.50;;;;;;;;;;5072661;28;20190;-67
2021/11/17 10:10:31;;;;;;;14.15;8.38;;;;;;;;;;5072300;28;20205;-67
2021/11/17 10:13:06;;;;;;;14.85;7.53;;;;;;;;;;5072642;28;20648;-67
2021/11/17 10:15:38;;;;;;;12.82;8.35;;;;;;;;;;5072598;28;20212;-67
2021/11/17 10:18:21;;;;;;;11.90;7.55;;;;;;;;;;5072228;28;20218;-68
2021/11/17 10:21:05;;;;;;;12.35;7.82;;;;;;;;;;5068179;28;20249;-67
2021/11/17 10:23:35;;;;;;;12.93;8.18;;;;;;;;;;5069848;28;20198;-67
2021/11/17 10:26:11;;;;;;;9.63;6.78;;;;;;;;;;5070053;28;20240;-67
2021/11/17 10:28:51;;;;;;;9.40;6.20;;;;;;;;;;5070723;28;20663;-67
2021/11/17 10:31:20;;;;;;;10.52;6.80;;;;;;;;;;5071208;28;20190;-67
2021/11/17 10:34:00;;;;;;;11.68;6.90;;;;;;;;;;5070665;28;20665;-70
2021/11/17 10:36:29;;;;;;;12.10;7.43;;;;;;;;;;5070022;28;20285;-67
2021/11/17 10:39:14;;;;;;;12.65;8.32;;;;;;;;;;5069569;28;20214;-67
2021/11/17 10:41:55;;;;;;;11.68;7.90;;;;;;;;;;5067085;28;20220;-66
2021/11/17 10:44:36;;;;;;;11.38;8.27;;;;;;;;;;5068283;28;20194;-67
2021/11/17 10:47:18;;;;;;;12.63;8.30;;;;;;;;;;5071516;28;20647;-67
2021/11/17 10:49:51;;;;;;;12.50;7.47;;;;;;;;;;5070654;28;20190;-67
2021/11/17 10:52:24;;;;;;;9.73;7.50;;;;;;;;;;5070342;28;20638;-67
2021/11/17 10:54:53;;;;;;;12.15;8.05;;;;;;;;;;5070815;28;20281;-67
2021/11/17 10:57:23;;;;;;;10.43;6.75;;;;;;;;;;5070405;28;20277;-67
2021/11/17 10:59:51;;;;;;;12.02;8.80;;;;;;;;;;5070133;28;20268;-67
2021/11/17 11:02:19;;;;;;;12.52;7.90;;;;;;;;;;5071539;28;20213;-67
2021/11/17 11:04:48;;;;;;;9.35;7.20;;;;;;;;;;5071014;28;20206;-67
2021/11/17 11:07:17;;;;;;;13.40;8.00;;;;;;;;;;5067372;28;20197;-67
2021/11/17 11:09:54;;;;;;;12.68;7.32;;;;;;;;;;5070831;28;20194;-66
2021/11/17 11:12:28;;;;;;;12.20;6.30;;;;;;;;;;5068107;28;20616;-66
2021/11/17 11:15:01;;;;;;;10.80;6.50;;;;;;;;;;5065216;28;20190;-67
2021/11/17 11:17:43;;;;;;;9.77;6.63;;;;;;;;;;5070700;28;20251;-67
2021/11/17 11:20:30;;;;;;;9.20;6.47;;;;;;;;;;5070031;28;20276;-67
2021/11/17 11:23:21;;;;;;;7.93;6.03;;;;;;;;;;5068784;28;20198;-68
2021/11/17 11:26:07;;;;;;;10.25;6.45;;;;;;;;;;5070196;28;20280;-67
2021/11/17 11:28:40;;;;;;;8.95;5.63;;;;;;;;;;5069343;28;20205;-67
2021/11/17 11:31:26;;;;;;;8.15;5.63;;;;;;;;;;5070490;28;20591;-67
2021/11/17 11:34:09;;;;;;;8.73;7.00;;;;;;;;;;5067787;28;20195;-67
2021/11/17 11:36:44;;;;;;;11.05;6.13;;;;;;;;;;5069350;28;20244;-67
2021/11/17 11:39:30;;;;;;;9.18;5.97;;;;;;;;;;5073955;28;20228;-67
2021/11/17 11:42:10;;;;;;;8.55;5.72;;;;;;;;;;5072602;28;20202;-68
2021/11/17 11:44:40;;;;;;;8.80;5.68;;;;;;;;;;5073468;28;20202;-67
2021/11/17 11:47:28;;;;;;;7.03;5.53;;;;;;;;;;5073579;28;20594;-68
2021/11/17 11:50:00;;;;;;;7.70;6.47;;;;;;;;;;5072120;28;20293;-67
2021/11/17 11:52:31;;;;;;;8.55;5.97;;;;;;;;;;5073122;28;20204;-67
2021/11/17 11:55:17;;;;;;;9.05;5.63;;;;;;;;;;5072330;28;20240;-67
2021/11/17 11:57:47;;;;;;;9.85;5.95;;;;;;;;;;5072699;28;20653;-66
2021/11/17 12:00:23;;;;;;;7.85;5.28;;;;;;;;;;5072519;28;20272;-68
2021/11/17 12:02:52;;;;;;;8.80;5.45;;;;;;;;;;5072669;28;20623;-67
2021/11/17 12:05:33;;;;;;;8.68;5.70;;;;;;;;;;5073571;28;20301;-67
2021/11/17 12:08:11;;;;;;;8.05;5.15;;;;;;;;;;5073917;28;20206;-67
2021/11/17 12:10:43;;;;;;;7.65;4.97;;;;;;;;;;5074175;28;20197;-67
2021/11/17 12:13:13;;;;;;;8.60;6.00;;;;;;;;;;5073257;28;20222;-67
2021/11/17 12:15:55;;;;;;;8.52;5.38;;;;;;;;;;5073116;28;20201;-67
2021/11/17 12:18:26;;;;;;;7.03;4.72;;;;;;;;;;5073380;28;20202;-67
2021/11/17 12:21:08;;;;;;;9.23;5.80;;;;;;;;;;5073929;28;20208;-67
2021/11/17 12:23:37;;;;;;;9.65;7.45;;;;;;;;;;5073153;28;20198;-67
2021/11/17 12:26:10;;;;;;;15.65;13.48;;;;;;;;;;5073872;28;20247;-66
2021/11/17 12:28:43;;;;;;;9.80;7.88;;;;;;;;;;5073607;28;20190;-67
2021/11/17 12:31:13;;;;;;;10.00;8.77;;;;;;;;;;5073942;28;20198;-67
2021/11/17 12:33:43;;;;;;;7.70;6.30;;;;;;;;;;5073389;28;20232;-66
2021/11/17 12:36:16;;;;;;;6.75;4.10;;;;;;;;;;5073335;28;20590;-66
2021/11/17 12:38:51;;;;;;;5.50;3.42;;;;;;;;;;5065848;28;20229;-66
2021/11/17 12:41:21;;;;;;;5.30;3.63;;;;;;;;;;5072294;28;20291;-67
2021/11/17 12:43:57;;;;;;;5.15;3.65;;;;;;;;;;5071747;28;20190;-66
2021/11/17 12:46:27;;;;;;;6.40;5.00;;;;;;;;;;5073016;28;20215;-67
2021/11/17 12:48:56;;;;;;;5.57;4.00;;;;;;;;;;5073361;28;20248;-67
2021/11/17 12:51:27;;;;;;;6.30;5.25;;;;;;;;;;5073403;28;20225;-66
2021/11/17 12:53:58;;;;;;;6.22;4.32;;;;;;;;;;5071714;28;20295;-67
2021/11/17 12:56:29;;;;;;;8.82;7.15;;;;;;;;;;5071865;28;20591;-67
2021/11/17 12:59:15;;;;;;;11.07;5.65;;;;;;;;;;5072588;28;20222;-67
2021/11/17 13:01:45;;;;;;;8.65;6.97;;;;;;;;;;5072196;28;20189;-67
2021/11/17 13:04:27;;;;;;;9.95;7.38;;;;;;;;;;5072667;28;20543;-67
2021/11/17 13:06:59;;;;;;;10.48;6.50;;;;;;;;;;5071360;28;20205;-68
2021/11/17 13:09:28;;;;;;;9.20;6.05;;;;;;;;;;5072465;28;20217;-69
2021/11/17 13:12:02;;;;;;;7.40;5.10;;;;;;;;;;5072695;28;20708;-67
2021/11/17 13:14:31;;;;;;;10.77;7.30;;;;;;;;;;5072720;28;21248;-69
2021/11/17 13:17:08;;;;;;;11.38;8.52;;;;;;;;;;5072540;28;20243;-67
2021/11/17 13:19:37;;;;;;;9.30;5.60;;;;;;;;;;5071528;28;20687;-67
2021/11/17 13:22:06;;;;;;;7.78;6.78;;;;;;;;;;5072834;28;20285;-67
2021/11/17 13:24:36;;;;;;;8.95;7.20;;;;;;;;;;5071904;28;20229;-67
2021/11/17 13:27:27;;;;;;;7.10;4.95;;;;;;;;;;5072536;28;20225;-67
2021/11/17 13:29:59;;;;;;;8.00;5.68;;;;;;;;;;5046634;28;20190;-67
2021/11/17 13:32:29;;;;;;;8.40;5.47;;;;;;;;;;5071984;28;20186;-67
2021/11/17 13:34:57;;;;;;;8.57;6.00;;;;;;;;;;5072125;28;20206;-67
2021/11/17 13:37:26;;;;;;;8.85;5.75;;;;;;;;;;5070440;28;20578;-68
2021/11/17 13:39:55;;;;;;;7.45;5.03;;;;;;;;;;5072363;28;20218;-67
2021/11/17 13:42:23;;;;;;;9.13;6.13;;;;;;;;;;5072213;28;20656;-67
2021/11/17 13:45:00;;;;;;;7.70;5.80;;;;;;;;;;5072029;28;20251;-67
2021/11/17 13:47:30;;;;;;;10.15;6.60;;;;;;;;;;5070936;28;20602;-67
2021/11/17 13:49:58;;;;;;;10.35;7.20;;;;;;;;;;5072445;28;20199;-67
2021/11/17 13:52:31;;;;;;;8.85;7.25;;;;;;;;;;5071641;28;20285;-67
2021/11/17 13:55:01;;;;;;;8.88;6.43;;;;;;;;;;5071009;28;20194;-68
2021/11/17 13:57:28;;;;;;;8.77;6.05;;;;;;;;;;5070250;28;20194;-67
2021/11/17 13:59:56;;;;;;;9.70;6.32;;;;;;;;;;5070144;28;20225;-67
2021/11/17 14:02:24;;;;;;;11.90;7.45;;;;;;;;;;5072146;28;20205;-66
2021/11/17 14:04:59;;;;;;;9.60;6.45;;;;;;;;;;5071116;28;20280;-67
2021/11/17 14:07:32;;;;;;;10.15;7.68;;;;;;;;;;5070289;28;20189;-67
2021/11/17 14:10:00;;;;;;;8.70;6.38;;;;;;;;;;5071209;28;20296;-67
2021/11/17 14:12:28;;;;;;;6.90;5.80;;;;;;;;;;5071682;28;20243;-67
2021/11/17 14:15:00;;;;;;;7.80;5.10;;;;;;;;;;5071123;28;20255;-66
2021/11/17 14:17:31;;;;;;;10.35;6.28;;;;;;;;;;5071652;28;20244;-67
2021/11/17 14:20:07;;;;;;;10.20;5.22;;;;;;;;;;5070898;28;20222;-67
2021/11/17 14:22:35;;;;;;;10.40;7.30;;;;;;;;;;5071511;28;20531;-67
2021/11/17 14:25:07;;;;;;;8.70;6.65;;;;;;;;;;5070597;28;20196;-67
2021/11/17 14:27:40;;;;;;;8.65;6.82;;;;;;;;;;5071425;28;20190;-67
2021/11/17 14:30:11;;;;;;;7.00;5.50;;;;;;;;;;5070957;28;20194;-66
2021/11/17 14:32:39;;;;;;;7.80;5.10;;;;;;;;;;5071804;28;20190;-66
2021/11/17 14:35:09;;;;;;;6.90;5.03;;;;;;;;;;5070765;28;20672;-67
2021/11/17 14:37:36;;;;;;;9.98;5.63;;;;;;;;;;5071229;28;20198;-67
2021/11/17 14:40:04;;;;;;;8.40;5.05;;;;;;;;;;5070743;28;20221;-67
2021/11/17 14:42:31;;;;;;;9.27;5.63;;;;;;;;;;5070223;28;20192;-67
2021/11/17 14:45:00;;;;;;;10.48;5.60;;;;;;;;;;5071421;28;20194;-67
2021/11/17 14:47:27;;;;;;;8.38;6.03;;;;;;;;;;5068602;28;20190;-67
2021/11/17 14:49:57;;;;;;;7.10;4.90;;;;;;;;;;5071418;28;20190;-67
2021/11/17 14:52:29;;;;;;;8.30;5.57;;;;;;;;;;5070166;28;20194;-70
2021/11/17 14:54:56;;;;;;;9.65;5.07;;;;;;;;;;5068030;28;20194;-67
2021/11/17 14:57:24;;;;;;;5.88;4.10;;;;;;;;;;5070617;28;20271;-66
2021/11/17 14:59:58;;;;;;;7.28;4.75;;;;;;;;;;5071109;28;20300;-66
2021/11/17 15:02:29;;;;;;;5.85;4.50;;;;;;;;;;5070809;28;20221;-66
2021/11/17 15:04:56;;;;;;;7.70;4.18;;;;;;;;;;5070808;28;20198;-67
2021/11/17 15:07:24;;;;;;;6.40;3.88;;;;;;;;;;5070654;28;20251;-66
2021/11/17 15:10:06;;;;;;;6.95;4.38;;;;;;;;;;5070667;28;20222;-67
2021/11/17 15:12:40;;;;;;;7.05;4.72;;;;;;;;;;5070321;28;20291;-67
2021/11/17 15:15:36;;;;;;;5.50;3.45;;;;;;;;;;5072568;28;20233;-68
2021/11/17 15:18:08;;;;;;;8.20;4.47;;;;;;;;;;5072513;28;20200;-67
2021/11/17 15:20:36;;;;;;;6.93;4.57;;;;;;;;;;5072483;28;20217;-67
2021/11/17 15:23:05;;;;;;;8.38;4.10;;;;;;;;;;5075153;28;20190;-67
2021/11/17 15:25:35;;;;;;;7.78;3.90;;;;;;;;;;5073864;28;20193;-68
2021/11/17 15:28:05;;;;;;;5.30;4.00;;;;;;;;;;5073124;28;20230;-67
2021/11/17 15:30:35;;;;;;;6.95;3.63;;;;;;;;;;5071731;28;20208;-67
2021/11/17 15:33:04;;;;;;;5.78;4.20;;;;;;;;;;5072177;28;20195;-67
2021/11/17 15:35:38;;;;;;;7.90;5.40;;;;;;;;;;5071863;28;20198;-70
2021/11/17 15:38:09;;;;;;;11.75;7.63;;;;;;;;;;5072801;28;20243;-67
2021/11/17 15:40:41;;;;;;;7.38;6.13;;;;;;;;;;5072944;28;20267;-67
2021/11/17 15:43:09;;;;;;;6.07;5.10;;;;;;;;;;5072705;28;20194;-67
2021/11/17 15:45:37;;;;;;;12.20;9.48;;;;;;;;;;5073848;28;20222;-67
2021/11/17 15:48:06;;;;;;;25.10;16.73;;;;;;;;;;5072537;28;20194;-67
2021/11/17 15:50:38;;;;;;;21.15;15.35;;;;;;;;;;5073740;28;20245;-67
2021/11/17 15:53:06;;;;;;;13.75;9.73;;;;;;;;;;5072307;28;20529;-65
2021/11/17 15:55:33;;;;;;;20.15;9.93;;;;;;;;;;5073319;28;20561;-67
2021/11/17 15:58:03;;;;;;;9.02;6.03;;;;;;;;;;5074230;28;20252;-68
2021/11/17 16:00:32;;;;;;;8.27;4.90;;;;;;;;;;5074142;28;20566;-67
2021/11/17 16:02:59;;;;;;;11.25;7.60;;;;;;;;;;5074113;28;20198;-67
2021/11/17 16:05:27;;;;;;;10.60;7.10;;;;;;;;;;5073194;28;20186;-67
2021/11/17 16:07:59;;;;;;;8.65;6.35;;;;;;;;;;5074259;28;20601;-67
2021/11/17 16:10:28;;;;;;;11.95;6.72;;;;;;;;;;5073717;28;20224;-68
2021/11/17 16:12:56;;;;;;;8.07;5.95;;;;;;;;;;5073775;28;20226;-67
2021/11/17 16:15:27;;;;;;;8.20;5.68;;;;;;;;;;5073699;28;20275;-67
2021/11/17 16:17:54;;;;;;;9.90;6.40;;;;;;;;;;5073946;28;20190;-66
2021/11/17 16:20:28;;;;;;;8.98;6.25;;;;;;;;;;5073110;28;20261;-68
2021/11/17 16:23:09;;;;;;;8.77;6.53;;;;;;;;;;5073562;28;20193;-67
2021/11/17 16:25:36;;;;;;;8.57;5.80;;;;;;;;;;5073107;28;20277;-67
2021/11/17 16:28:12;;;;;;;9.05;5.80;;;;;;;;;;5073774;28;20667;-66
2021/11/17 16:30:42;;;;;;;9.18;5.55;;;;;;;;;;5073538;28;20645;-66
2021/11/17 16:33:11;;;;;;;7.32;5.32;;;;;;;;;;5072754;28;20186;-66
2021/11/17 16:35:39;;;;;;;167.88;82.55;;;;;;;;;;5070112;28;20197;-67
2021/11/17 16:38:07;;;;;;;36.05;17.95;;;;;;;;;;5071771;28;20198;-67
2021/11/17 16:40:36;;;;;;;9.18;6.70;;;;;;;;;;5071779;28;20229;-67
2021/11/17 16:43:05;;;;;;;9.20;6.80;;;;;;;;;;5071109;28;20190;-68
2021/11/17 16:45:37;;;;;;;11.38;7.88;;;;;;;;;;5071369;28;20653;-65
2021/11/17 16:48:12;;;;;;;11.23;6.78;;;;;;;;;;5071803;28;20540;-68
2021/11/17 16:50:42;;;;;;;10.32;6.43;;;;;;;;;;5070322;28;20190;-67
2021/11/17 16:53:12;;;;;;;8.50;6.65;;;;;;;;;;5071740;28;20198;-67
2021/11/17 16:55:43;;;;;;;13.35;7.18;;;;;;;;;;5070675;28;20186;-68
2021/11/17 16:58:11;;;;;;;10.02;7.15;;;;;;;;;;5071323;28;20190;-67
2021/11/17 17:00:39;;;;;;;10.77;7.60;;;;;;;;;;5071320;28;20237;-67
2021/11/17 17:03:29;;;;;;;13.95;8.65;;;;;;;;;;5071490;28;20194;-68
2021/11/17 17:06:06;;;;;;;11.25;8.70;;;;;;;;;;5069304;28;20195;-67
2021/11/17 17:08:38;;;;;;;12.45;8.05;;;;;;;;;;5069642;28;20201;-68
2021/11/17 17:11:07;;;;;;;11.25;6.38;;;;;;;;;;5071181;28;20222;-67
2021/11/17 17:13:36;;;;;;;11.13;7.43;;;;;;;;;;5070937;28;20233;-67
2021/11/17 17:16:04;;;;;;;10.70;6.50;;;;;;;;;;5070388;28;20610;-67
2021/11/17 17:18:32;;;;;;;9.40;7.10;;;;;;;;;;5070731;28;20194;-68
2021/11/17 17:21:02;;;;;;;10.90;7.18;;;;;;;;;;5070681;28;20214;-68
2021/11/17 17:23:30;;;;;;;7.20;4.82;;;;;;;;;;5068294;28;20198;-67
2021/11/17 17:25:58;;;;;;;6.95;4.78;;;;;;;;;;5070710;28;20198;-67
2021/11/17 17:28:31;;;;;;;7.05;5.30;;;;;;;;;;5069827;28;20201;-67
2021/11/17 17:30:59;;;;;;;7.43;5.07;;;;;;;;;;5068229;28;20273;-67
2021/11/17 17:33:27;;;;;;;7.80;4.78;;;;;;;;;;5071231;28;20201;-68
2021/11/17 17:35:54;;;;;;;7.50;5.30;;;;;;;;;;5070117;28;20190;-67
2021/11/17 17:38:23;;;;;;;5.50;4.28;;;;;;;;;;5070809;28;20236;-67